Aviation Digital Data Service (ADDS)

Output produced by METARs form (1305 UTC 24 January 2021)
found at http://www.aviationweather.gov/metar/data/
 
METAR text: VLLB 241200Z 00000KT CAVOK 27/13 Q1010 NOSIG
Conditions at: VLLB (LUANG-PRABANG , LA) observed 1200 UTC 24 January 2021
Temperature: 27.0°C (81°F)
Dewpoint: 13.0°C (55°F) [RH = 42%]
Pressure (altimeter): 29.82 inches Hg (1010.0 mb)
Winds: calm
Visibility: 6 or more miles (10+ km)
Ceiling: ceiling and visibility are OK
Clouds: unknown
Weather: no significant weather observed at this time

METAR text: VLLB 241100Z 00000KT 9999 FEW020 28/14 Q1009 NOSIG
Conditions at: VLLB (LUANG-PRABANG , LA) observed 1100 UTC 24 January 2021
Temperature: 28.0°C (82°F)
Dewpoint: 14.0°C (57°F) [RH = 42%]
Pressure (altimeter): 29.79 inches Hg (1009.0 mb)
Winds: calm
Visibility: 6 or more miles (10+ km)
Ceiling: at least 12,000 feet AGL
Clouds: few clouds at 2000 feet AGL
Weather: no significant weather observed at this time

METAR text: VLLB 241000Z 27004KT 9999 FEW020 31/13 Q1009 NOSIG
Conditions at: VLLB (LUANG-PRABANG , LA) observed 1000 UTC 24 January 2021
Temperature: 31.0°C (88°F)
Dewpoint: 13.0°C (55°F) [RH = 33%]
Pressure (altimeter): 29.79 inches Hg (1009.0 mb)
Winds: from the W (270 degrees) at 5 MPH (4 knots; 2.1 m/s)
Visibility: 6 or more miles (10+ km)
Ceiling: at least 12,000 feet AGL
Clouds: few clouds at 2000 feet AGL
Weather: no significant weather observed at this time

METAR text: VLLB 240900Z 27006KT 9999 FEW020 32/13 Q1009 NOSIG
Conditions at: VLLB (LUANG-PRABANG , LA) observed 0900 UTC 24 January 2021
Temperature: 32.0°C (90°F)
Dewpoint: 13.0°C (55°F) [RH = 32%]
Pressure (altimeter): 29.79 inches Hg (1009.0 mb)
Winds: from the W (270 degrees) at 7 MPH (6 knots; 3.1 m/s)
Visibility: 6 or more miles (10+ km)
Ceiling: at least 12,000 feet AGL
Clouds: few clouds at 2000 feet AGL
Weather: no significant weather observed at this time

METAR text: VLLB 240800Z 27004KT CAVOK 29/12 Q1011 NOSIG
Conditions at: VLLB (LUANG-PRABANG , LA) observed 0800 UTC 24 January 2021
Temperature: 29.0°C (84°F)
Dewpoint: 12.0°C (54°F) [RH = 35%]
Pressure (altimeter): 29.85 inches Hg (1011.0 mb)
Winds: from the W (270 degrees) at 5 MPH (4 knots; 2.1 m/s)
Visibility: 6 or more miles (10+ km)
Ceiling: ceiling and visibility are OK
Clouds: unknown
Weather: no significant weather observed at this time

METAR text: VLLB 240700Z 32004KT CAVOK 29/14 Q1012 NOSIG
Conditions at: VLLB (LUANG-PRABANG , LA) observed 0700 UTC 24 January 2021
Temperature: 29.0°C (84°F)
Dewpoint: 14.0°C (57°F) [RH = 40%]
Pressure (altimeter): 29.88 inches Hg (1012.0 mb)
Winds: from the NW (320 degrees) at 5 MPH (4 knots; 2.1 m/s)
Visibility: 6 or more miles (10+ km)
Ceiling: ceiling and visibility are OK
Clouds: unknown
Weather: no significant weather observed at this time

METAR text: VLLB 240600Z 27004KT CAVOK 28/13 Q1012 NOSIG
Conditions at: VLLB (LUANG-PRABANG , LA) observed 0600 UTC 24 January 2021
Temperature: 28.0°C (82°F)
Dewpoint: 13.0°C (55°F) [RH = 40%]
Pressure (altimeter): 29.88 inches Hg (1012.0 mb)
Winds: from the W (270 degrees) at 5 MPH (4 knots; 2.1 m/s)
Visibility: 6 or more miles (10+ km)
Ceiling: ceiling and visibility are OK
Clouds: unknown
Weather: no significant weather observed at this time

METAR text: VLLB 240500Z 27004KT CAVOK 24/13 Q1013 NOSIG
Conditions at: VLLB (LUANG-PRABANG , LA) observed 0500 UTC 24 January 2021
Temperature: 24.0°C (75°F)
Dewpoint: 13.0°C (55°F) [RH = 50%]
Pressure (altimeter): 29.91 inches Hg (1013.0 mb)
Winds: from the W (270 degrees) at 5 MPH (4 knots; 2.1 m/s)
Visibility: 6 or more miles (10+ km)
Ceiling: ceiling and visibility are OK
Clouds: unknown
Weather: no significant weather observed at this time

METAR text: VLLB 240400Z 18002KT CAVOK 22/12 Q1015 NOSIG
Conditions at: VLLB (LUANG-PRABANG , LA) observed 0400 UTC 24 January 2021
Temperature: 22.0°C (72°F)
Dewpoint: 12.0°C (54°F) [RH = 53%]
Pressure (altimeter): 29.97 inches Hg (1015.0 mb)
Winds: from the S (180 degrees) at 2 MPH (2 knots; 1.0 m/s)
Visibility: 6 or more miles (10+ km)
Ceiling: ceiling and visibility are OK
Clouds: unknown
Weather: no significant weather observed at this time

METAR text: VLLB 240300Z 09002KT CAVOK 20/13 Q1015 NOSIG
Conditions at: VLLB (LUANG-PRABANG , LA) observed 0300 UTC 24 January 2021
Temperature: 20.0°C (68°F)
Dewpoint: 13.0°C (55°F) [RH = 64%]
Pressure (altimeter): 29.97 inches Hg (1015.0 mb)
Winds: from the E (90 degrees) at 2 MPH (2 knots; 1.0 m/s)
Visibility: 6 or more miles (10+ km)
Ceiling: ceiling and visibility are OK
Clouds: unknown
Weather: no significant weather observed at this time

METAR text: VLLB 240200Z 00000KT 9999 FEW020 15/13 Q1014 NOSIG
Conditions at: VLLB (LUANG-PRABANG , LA) observed 0200 UTC 24 January 2021
Temperature: 15.0°C (59°F)
Dewpoint: 13.0°C (55°F) [RH = 88%]
Pressure (altimeter): 29.94 inches Hg (1014.0 mb)
Winds: calm
Visibility: 6 or more miles (10+ km)
Ceiling: at least 12,000 feet AGL
Clouds: few clouds at 2000 feet AGL
Weather: no significant weather observed at this time

METAR text: VLLB 240100Z 00000KT 5000 BR FEW020 FEW060 14/12 Q1014 NOSIG
Conditions at: VLLB (LUANG-PRABANG , LA) observed 0100 UTC 24 January 2021
Temperature: 14.0°C (57°F)
Dewpoint: 12.0°C (54°F) [RH = 88%]
Pressure (altimeter): 29.94 inches Hg (1014.0 mb)
Winds: calm
Visibility: 3 miles ( 5 km)
Ceiling: at least 12,000 feet AGL
Clouds: few clouds at 2000 feet AGL
few clouds at 6000 feet AGL
Weather: BR  (mist)

METAR text: VLLB 240000Z 00000KT 4000 BR FEW017 SCT060 14/12 Q1013 NOSIG
Conditions at: VLLB (LUANG-PRABANG , LA) observed 0000 UTC 24 January 2021
Temperature: 14.0°C (57°F)
Dewpoint: 12.0°C (54°F) [RH = 88%]
Pressure (altimeter): 29.91 inches Hg (1013.0 mb)
Winds: calm
Visibility: 2.49 miles (4.01 km)
Ceiling: at least 12,000 feet AGL
Clouds: few clouds at 1700 feet AGL
scattered clouds at 6000 feet AGL
Weather: BR  (mist)

METAR text: VLLB 231200Z 22002KT 9999 SCT020 SCT060 BKN080 26/10 Q1009 NOSIG
Conditions at: VLLB (LUANG-PRABANG , LA) observed 1200 UTC 23 January 2021
Temperature: 26.0°C (79°F)
Dewpoint: 10.0°C (50°F) [RH = 37%]
Pressure (altimeter): 29.79 inches Hg (1009.0 mb)
Winds: from the SW (220 degrees) at 2 MPH (2 knots; 1.0 m/s)
Visibility: 6 or more miles (10+ km)
Ceiling: 8000 feet AGL
Clouds: scattered clouds at 2000 feet AGL
scattered clouds at 6000 feet AGL
broken clouds at 8000 feet AGL
Weather: no significant weather observed at this time

METAR text: VLLB 231100Z 24006KT 9999 SCT020 BKN060 28/10 Q1008 NOSIG
Conditions at: VLLB (LUANG-PRABANG , LA) observed 1100 UTC 23 January 2021
Temperature: 28.0°C (82°F)
Dewpoint: 10.0°C (50°F) [RH = 32%]
Pressure (altimeter): 29.76 inches Hg (1008.0 mb)
Winds: from the WSW (240 degrees) at 7 MPH (6 knots; 3.1 m/s)
Visibility: 6 or more miles (10+ km)
Ceiling: 6000 feet AGL
Clouds: scattered clouds at 2000 feet AGL
broken clouds at 6000 feet AGL
Weather: no significant weather observed at this time

METAR text: VLLB 231000Z 27008KT 9999 SCT020 SCT060 30/10 Q1008 NOSIG
Conditions at: VLLB (LUANG-PRABANG , LA) observed 1000 UTC 23 January 2021
Temperature: 30.0°C (86°F)
Dewpoint: 10.0°C (50°F) [RH = 29%]
Pressure (altimeter): 29.76 inches Hg (1008.0 mb)
Winds: from the W (270 degrees) at 9 MPH (8 knots; 4.1 m/s)
Visibility: 6 or more miles (10+ km)
Ceiling: at least 12,000 feet AGL
Clouds: scattered clouds at 2000 feet AGL
scattered clouds at 6000 feet AGL
Weather: no significant weather observed at this time

METAR text: VLLB 230900Z 27010KT 9999 SCT020 FEW060 31/08 Q1008 NOSIG
Conditions at: VLLB (LUANG-PRABANG , LA) observed 0900 UTC 23 January 2021
Temperature: 31.0°C (88°F)
Dewpoint: 8.0°C (46°F) [RH = 24%]
Pressure (altimeter): 29.76 inches Hg (1008.0 mb)
Winds: from the W (270 degrees) at 12 MPH (10 knots; 5.1 m/s)
Visibility: 6 or more miles (10+ km)
Ceiling: at least 12,000 feet AGL
Clouds: scattered clouds at 2000 feet AGL
few clouds at 6000 feet AGL
Weather: no significant weather observed at this time

METAR text: VLLB 230800Z 27006KT 9999 SCT020 FEW060 30/13 Q1008 NOSIG
Conditions at: VLLB (LUANG-PRABANG , LA) observed 0800 UTC 23 January 2021
Temperature: 30.0°C (86°F)
Dewpoint: 13.0°C (55°F) [RH = 35%]
Pressure (altimeter): 29.76 inches Hg (1008.0 mb)
Winds: from the W (270 degrees) at 7 MPH (6 knots; 3.1 m/s)
Visibility: 6 or more miles (10+ km)
Ceiling: at least 12,000 feet AGL
Clouds: scattered clouds at 2000 feet AGL
few clouds at 6000 feet AGL
Weather: no significant weather observed at this time

METAR text: VLLB 230700Z 18006KT 9999 FEW020 30/13 Q1009 NOSIG
Conditions at: VLLB (LUANG-PRABANG , LA) observed 0700 UTC 23 January 2021
Temperature: 30.0°C (86°F)
Dewpoint: 13.0°C (55°F) [RH = 35%]
Pressure (altimeter): 29.79 inches Hg (1009.0 mb)
Winds: from the S (180 degrees) at 7 MPH (6 knots; 3.1 m/s)
Visibility: 6 or more miles (10+ km)
Ceiling: at least 12,000 feet AGL
Clouds: few clouds at 2000 feet AGL
Weather: no significant weather observed at this time

METAR text: VLLB 230600Z 27006KT 9999 FEW020 28/13 Q1011 NOSIG
Conditions at: VLLB (LUANG-PRABANG , LA) observed 0600 UTC 23 January 2021
Temperature: 28.0°C (82°F)
Dewpoint: 13.0°C (55°F) [RH = 40%]
Pressure (altimeter): 29.85 inches Hg (1011.0 mb)
Winds: from the W (270 degrees) at 7 MPH (6 knots; 3.1 m/s)
Visibility: 6 or more miles (10+ km)
Ceiling: at least 12,000 feet AGL
Clouds: few clouds at 2000 feet AGL
Weather: no significant weather observed at this time

METAR text: VLLB 230500Z 27004KT CAVOK 27/14 Q1012 NOSIG
Conditions at: VLLB (LUANG-PRABANG , LA) observed 0500 UTC 23 January 2021
Temperature: 27.0°C (81°F)
Dewpoint: 14.0°C (57°F) [RH = 45%]
Pressure (altimeter): 29.88 inches Hg (1012.0 mb)
Winds: from the W (270 degrees) at 5 MPH (4 knots; 2.1 m/s)
Visibility: 6 or more miles (10+ km)
Ceiling: ceiling and visibility are OK
Clouds: unknown
Weather: no significant weather observed at this time

METAR text: VLLB 230400Z 36002KT CAVOK 24/14 Q1014 NOSIG
Conditions at: VLLB (LUANG-PRABANG , LA) observed 0400 UTC 23 January 2021
Temperature: 24.0°C (75°F)
Dewpoint: 14.0°C (57°F) [RH = 54%]
Pressure (altimeter): 29.94 inches Hg (1014.0 mb)
Winds: from the N (360 degrees) at 2 MPH (2 knots; 1.0 m/s)
Visibility: 6 or more miles (10+ km)
Ceiling: ceiling and visibility are OK
Clouds: unknown
Weather: no significant weather observed at this time

METAR text: VLLB 230300Z 04002KT 9999 FEW017 BKN060 21/14 Q1014 NOSIG
Conditions at: VLLB (LUANG-PRABANG , LA) observed 0300 UTC 23 January 2021
Temperature: 21.0°C (70°F)
Dewpoint: 14.0°C (57°F) [RH = 64%]
Pressure (altimeter): 29.94 inches Hg (1014.0 mb)
Winds: from the NE (40 degrees) at 2 MPH (2 knots; 1.0 m/s)
Visibility: 6 or more miles (10+ km)
Ceiling: 6000 feet AGL
Clouds: few clouds at 1700 feet AGL
broken clouds at 6000 feet AGL
Weather: no significant weather observed at this time

METAR text: VLLB 230200Z 00000KT 9999 FEW015 BKN060 19/15 Q1014 NOSIG
Conditions at: VLLB (LUANG-PRABANG , LA) observed 0200 UTC 23 January 2021
Temperature: 19.0°C (66°F)
Dewpoint: 15.0°C (59°F) [RH = 78%]
Pressure (altimeter): 29.94 inches Hg (1014.0 mb)
Winds: calm
Visibility: 6 or more miles (10+ km)
Ceiling: 6000 feet AGL
Clouds: few clouds at 1500 feet AGL
broken clouds at 6000 feet AGL
Weather: no significant weather observed at this time

Forecast for: VLLB (LUANG-PRABANG , LA)
Text: TAF VLLB 241100Z 2412/2512 36002KT 7000 FEW020 FEW060
Forecast period: 1200 UTC 24 January 2021 to 1200 UTC 25 January 2021
Forecast type: FROM: standard forecast or significant change
Winds: from the N (360 degrees) at 2 MPH (2 knots; 1.0 m/s)
Visibility: 4 miles (7 km)
Ceiling: at least 12,000 feet AGL
Clouds: few clouds at 2000 feet AGL
few clouds at 6000 feet AGL
Weather: no significant weather forecast for this period